createdAt,value
2023-04-23T00:00:21.722Z,0.70
2023-04-23T00:02:56.153Z,0.80
2023-04-23T00:05:31.014Z,0.68
2023-04-23T00:08:04.882Z,0.68
2023-04-23T00:10:35.821Z,0.70
2023-04-23T00:13:06.919Z,0.75
2023-04-23T00:15:40.324Z,0.70
2023-04-23T00:18:10.850Z,0.70
2023-04-23T00:20:43.012Z,0.80
2023-04-23T00:23:13.554Z,1.25
2023-04-23T00:25:44.051Z,0.70
2023-04-23T00:28:14.573Z,0.60
2023-04-23T00:30:45.191Z,0.80
2023-04-23T00:33:15.780Z,1.80
2023-04-23T00:35:48.528Z,0.77
2023-04-23T00:38:19.121Z,0.70
2023-04-23T00:40:50.089Z,0.80
2023-04-23T00:43:21.596Z,0.90
2023-04-23T00:45:53.471Z,0.70
2023-04-23T00:48:24.943Z,0.70
2023-04-23T00:51:02.967Z,0.70
2023-04-23T00:53:33.858Z,0.73
2023-04-23T00:56:06.789Z,0.63
2023-04-23T00:58:38.308Z,0.68
2023-04-23T01:01:09.714Z,0.65
2023-04-23T01:03:41.889Z,0.70
2023-04-23T01:06:14.278Z,0.60
2023-04-23T01:08:46.292Z,0.60
2023-04-23T01:11:17.610Z,0.80
2023-04-23T01:13:48.228Z,0.60
2023-04-23T01:16:18.878Z,0.70
2023-04-23T01:18:49.448Z,1.00
2023-04-23T01:21:22.475Z,0.75
2023-04-23T01:23:54.778Z,0.70
2023-04-23T01:26:25.934Z,0.80
2023-04-23T01:28:57.026Z,0.50
2023-04-23T01:31:28.002Z,0.70
2023-04-23T01:33:59.353Z,0.88
2023-04-23T01:36:30.035Z,0.80
2023-04-23T01:39:02.520Z,0.90
2023-04-23T01:41:33.356Z,0.65
2023-04-23T01:44:04.241Z,0.70
2023-04-23T01:46:35.183Z,0.95
2023-04-23T01:49:05.895Z,0.80
2023-04-23T01:51:36.499Z,0.88
2023-04-23T01:54:09.006Z,0.70
2023-04-23T01:56:40.101Z,0.70
2023-04-23T01:59:10.702Z,0.80
2023-04-23T02:01:49.336Z,1.00
2023-04-23T02:04:20.819Z,0.65
2023-04-23T02:06:53.494Z,0.70
2023-04-23T02:09:29.414Z,0.60
2023-04-23T02:11:59.996Z,0.95
2023-04-23T02:14:30.952Z,1.08
2023-04-23T02:17:02.391Z,0.77
2023-04-23T02:19:35.456Z,0.90
2023-04-23T02:22:06.657Z,1.00
2023-04-23T02:24:40.012Z,1.00
2023-04-23T02:27:11.223Z,0.93
2023-04-23T02:29:42.111Z,0.80
2023-04-23T02:32:13.476Z,0.63
2023-04-23T02:34:44.226Z,0.60
2023-04-23T02:37:16.458Z,0.70
2023-04-23T02:39:48.782Z,0.85
2023-04-23T02:42:19.333Z,0.80
2023-04-23T02:44:49.823Z,0.80
2023-04-23T02:47:20.611Z,0.75
2023-04-23T02:49:51.047Z,1.05
2023-04-23T02:52:21.612Z,0.77
2023-04-23T02:54:54.618Z,0.80
2023-04-23T02:57:26.146Z,0.80
2023-04-23T02:59:57.189Z,0.70
2023-04-23T03:02:28.333Z,0.75
2023-04-23T03:04:59.238Z,0.80
2023-04-23T03:07:29.865Z,0.88
2023-04-23T03:10:04.540Z,0.85
2023-04-23T03:12:35.005Z,0.70
2023-04-23T03:15:05.606Z,0.70
2023-04-23T03:17:36.353Z,0.90
2023-04-23T03:20:08.119Z,0.70
2023-04-23T03:22:38.723Z,0.75
2023-04-23T03:25:12.105Z,0.70
2023-04-23T03:27:45.120Z,1.15
2023-04-23T03:30:15.883Z,1.05
2023-04-23T03:32:46.589Z,0.75
2023-04-23T03:35:17.663Z,0.90
2023-04-23T03:37:48.263Z,1.05
2023-04-23T03:40:20.656Z,0.77
2023-04-23T03:42:51.237Z,0.90
2023-04-23T03:45:23.144Z,1.02
2023-04-23T03:47:54.075Z,1.00
2023-04-23T03:50:26.111Z,1.13
2023-04-23T03:52:56.958Z,0.80
2023-04-23T03:55:29.361Z,1.00
2023-04-23T03:58:01.304Z,0.75
2023-04-23T04:00:32.100Z,1.00
2023-04-23T04:03:03.564Z,1.02
2023-04-23T04:05:34.447Z,0.80
2023-04-23T04:08:06.535Z,1.00
2023-04-23T04:10:38.740Z,0.80
2023-04-23T04:13:09.340Z,1.10
2023-04-23T04:15:39.993Z,0.70
2023-04-23T04:18:10.685Z,0.82
2023-04-23T04:20:41.436Z,1.00
2023-04-23T04:23:12.036Z,0.80
2023-04-23T04:25:44.186Z,1.20
2023-04-23T04:28:15.110Z,0.90
2023-04-23T04:30:45.825Z,1.00
2023-04-23T04:33:16.745Z,1.20
2023-04-23T04:35:47.587Z,1.13
2023-04-23T04:38:18.407Z,1.17
2023-04-23T04:40:51.435Z,1.20
2023-04-23T04:43:22.123Z,1.00
2023-04-23T04:45:52.672Z,1.30
2023-04-23T04:48:23.413Z,1.05
2023-04-23T04:50:54.272Z,1.00
2023-04-23T04:53:24.871Z,1.00
2023-04-23T04:55:57.071Z,0.90
2023-04-23T04:58:32.527Z,1.33
2023-04-23T05:01:34.204Z,1.20
2023-04-23T05:04:06.521Z,1.20
2023-04-23T05:06:37.344Z,0.90
2023-04-23T05:09:09.039Z,0.82
2023-04-23T05:11:42.070Z,0.80
2023-04-23T05:14:12.649Z,0.70
2023-04-23T05:16:43.387Z,1.63
2023-04-23T05:19:13.931Z,1.30
2023-04-23T05:21:45.134Z,1.80
2023-04-23T05:24:15.709Z,2.40
2023-04-23T05:26:47.869Z,4.03
2023-04-23T05:29:20.192Z,1.55
2023-04-23T05:31:51.264Z,1.90
2023-04-23T05:34:23.188Z,1.25
2023-04-23T05:36:54.797Z,1.30
2023-04-23T05:39:27.493Z,1.40
2023-04-23T05:42:00.398Z,1.35
2023-04-23T05:44:32.911Z,1.55
2023-04-23T05:47:03.528Z,1.90
2023-04-23T05:49:34.144Z,1.52
2023-04-23T05:52:05.274Z,1.75
2023-04-23T05:54:36.033Z,1.70
2023-04-23T05:57:08.635Z,2.10
2023-04-23T05:59:39.363Z,2.00
2023-04-23T06:02:11.413Z,1.90
2023-04-23T06:04:42.541Z,2.22
2023-04-23T06:07:15.032Z,2.03
2023-04-23T06:09:45.638Z,1.85
2023-04-23T06:12:17.832Z,2.30
2023-04-23T06:14:48.506Z,1.88
2023-04-23T06:17:21.708Z,2.58
2023-04-23T06:19:52.195Z,2.60
2023-04-23T06:22:22.716Z,2.75
2023-04-23T06:24:53.245Z,2.30
2023-04-23T06:27:25.517Z,2.22
2023-04-23T06:29:55.998Z,3.60
2023-04-23T06:32:27.050Z,2.67
2023-04-23T06:35:01.528Z,2.85
2023-04-23T06:37:33.203Z,2.85
2023-04-23T06:40:03.880Z,3.28
2023-04-23T06:42:36.093Z,4.07
2023-04-23T06:45:07.107Z,3.67
2023-04-23T06:47:37.678Z,3.22
2023-04-23T06:50:09.549Z,3.60
2023-04-23T06:52:40.292Z,3.17
2023-04-23T06:55:12.216Z,3.30
2023-04-23T06:57:44.515Z,4.03
2023-04-23T07:00:16.128Z,3.42
2023-04-23T07:02:47.329Z,3.25
2023-04-23T07:05:17.834Z,3.47
2023-04-23T07:07:48.346Z,3.67
2023-04-23T07:10:18.867Z,3.55
2023-04-23T07:12:51.238Z,4.22
2023-04-23T07:15:21.779Z,3.60
2023-04-23T07:17:52.923Z,4.00
2023-04-23T07:20:23.547Z,3.53
2023-04-23T07:22:54.010Z,4.13
2023-04-23T07:25:25.528Z,3.75
2023-04-23T07:27:57.620Z,3.85
2023-04-23T07:30:29.247Z,3.22
2023-04-23T07:32:59.761Z,3.95
2023-04-23T07:35:30.394Z,3.60
2023-04-23T07:38:00.840Z,3.58
2023-04-23T07:40:31.217Z,3.47
2023-04-23T07:43:03.294Z,3.47
2023-04-23T07:45:34.959Z,2.75
2023-04-23T07:48:05.612Z,3.47
2023-04-23T07:50:36.090Z,3.88
2023-04-23T07:53:06.632Z,3.88
2023-04-23T07:55:37.501Z,3.10
2023-04-23T07:58:09.585Z,3.85
2023-04-23T08:00:40.062Z,3.60
2023-04-23T08:03:10.779Z,3.22
2023-04-23T08:05:42.094Z,3.33
2023-04-23T08:08:13.894Z,3.80
2023-04-23T08:10:44.622Z,4.53
2023-04-23T08:13:17.072Z,4.60
2023-04-23T08:15:47.524Z,3.75
2023-04-23T08:18:18.165Z,3.80
2023-04-23T08:20:48.685Z,3.67
2023-04-23T08:23:19.850Z,3.92
2023-04-23T08:25:50.304Z,3.90
2023-04-23T08:28:23.158Z,3.35
2023-04-23T08:30:53.745Z,3.22
2023-04-23T08:33:24.344Z,3.90
2023-04-23T08:35:58.526Z,4.43
2023-04-23T08:38:29.027Z,4.55
2023-04-23T08:41:00.912Z,3.72
2023-04-23T08:43:39.976Z,3.58
2023-04-23T08:46:15.462Z,4.07
2023-04-23T08:48:48.343Z,4.00
2023-04-23T08:51:21.798Z,3.33
2023-04-23T08:53:58.840Z,4.05
2023-04-23T08:56:30.734Z,5.07
2023-04-23T08:59:04.758Z,3.67
2023-04-23T09:01:35.233Z,3.20
2023-04-23T09:04:07.774Z,3.28
2023-04-23T09:06:38.951Z,2.97
2023-04-23T09:09:13.372Z,3.45
2023-04-23T09:11:44.314Z,3.33
2023-04-23T09:14:25.984Z,3.20
2023-04-23T09:16:56.733Z,3.15
2023-04-23T09:19:30.146Z,3.22
2023-04-23T09:22:08.554Z,2.83
2023-04-23T09:24:39.123Z,2.75
2023-04-23T09:27:11.065Z,3.25
2023-04-23T09:29:48.905Z,2.92
2023-04-23T09:32:19.441Z,3.00
2023-04-23T09:34:58.758Z,3.20
2023-04-23T09:37:29.329Z,3.08
2023-04-23T09:40:02.013Z,2.78
2023-04-23T09:42:35.684Z,2.70
2023-04-23T09:45:10.960Z,3.97
2023-04-23T09:47:42.915Z,3.25
2023-04-23T09:50:14.110Z,2.97
2023-04-23T09:52:47.643Z,2.78
2023-04-23T09:55:25.409Z,2.72
2023-04-23T09:57:59.593Z,2.63
2023-04-23T10:00:37.231Z,2.63
2023-04-23T10:03:09.485Z,2.63
2023-04-23T10:08:19.049Z,2.80
2023-04-23T10:13:24.319Z,2.42
2023-04-23T10:16:07.127Z,2.60
2023-04-23T10:18:45.823Z,2.60
2023-04-23T10:21:18.915Z,2.10
2023-04-23T10:23:53.184Z,2.47
2023-04-23T10:26:26.222Z,2.40
2023-04-23T10:29:04.277Z,2.25
2023-04-23T10:31:39.344Z,1.95
2023-04-23T10:34:12.822Z,2.30
2023-04-23T10:36:43.382Z,1.95
2023-04-23T10:41:47.366Z,1.98
2023-04-23T10:44:31.079Z,2.33
2023-04-23T10:47:22.973Z,2.33
2023-04-23T10:49:56.677Z,2.10
2023-04-23T10:52:27.990Z,1.83
2023-04-23T10:55:02.012Z,2.10
2023-04-23T10:57:33.517Z,2.30
2023-04-23T11:00:05.587Z,2.30
2023-04-23T11:02:49.028Z,1.73
2023-04-23T11:05:19.826Z,2.08
2023-04-23T11:08:18.978Z,2.05
2023-04-23T11:11:01.593Z,1.80
2023-04-23T11:13:33.246Z,1.67
2023-04-23T11:16:23.917Z,2.45
2023-04-23T11:19:19.882Z,1.73
2023-04-23T11:22:09.626Z,2.08
2023-04-23T11:24:43.263Z,1.85
2023-04-23T11:27:15.703Z,1.67
2023-04-23T11:29:47.711Z,2.00
2023-04-23T11:32:26.305Z,1.98
2023-04-23T11:35:13.191Z,1.58
2023-04-23T11:37:48.704Z,1.73
2023-04-23T11:40:33.952Z,1.70
2023-04-23T11:43:05.304Z,2.20
2023-04-23T11:45:36.114Z,2.13
2023-04-23T11:48:10.318Z,1.90
2023-04-23T11:50:45.151Z,2.15
2023-04-23T11:53:15.893Z,1.60
2023-04-23T11:55:46.774Z,2.45
2023-04-23T11:58:23.600Z,1.80
2023-04-23T12:01:03.411Z,1.80
2023-04-23T12:03:33.999Z,1.90
2023-04-23T12:06:06.418Z,1.88
2023-04-23T12:08:41.024Z,1.90
2023-04-23T12:11:11.916Z,2.40
2023-04-23T12:13:48.767Z,2.00
2023-04-23T12:16:22.445Z,2.03
2023-04-23T12:18:57.278Z,1.92
2023-04-23T12:21:30.719Z,1.77
2023-04-23T12:24:01.679Z,1.92
2023-04-23T12:26:32.345Z,1.70
2023-04-23T12:29:07.883Z,1.90
2023-04-23T12:31:42.631Z,2.00
2023-04-23T12:34:14.525Z,2.10
2023-04-23T12:36:49.238Z,2.60
2023-04-23T12:39:31.692Z,2.25
2023-04-23T12:42:08.056Z,2.40
2023-04-23T12:44:41.470Z,2.05
2023-04-23T12:47:16.095Z,2.63
2023-04-23T12:49:50.462Z,2.28
2023-04-23T12:52:25.858Z,2.10
2023-04-23T12:55:01.379Z,1.70
2023-04-23T12:57:32.019Z,2.00
2023-04-23T13:00:03.568Z,1.95
2023-04-23T13:02:35.275Z,2.38
2023-04-23T13:05:06.413Z,2.53
2023-04-23T13:07:38.584Z,2.20
2023-04-23T13:10:10.200Z,2.20
2023-04-23T13:12:41.477Z,2.20
2023-04-23T13:15:16.796Z,2.25
2023-04-23T13:17:51.695Z,2.53
2023-04-23T13:20:22.627Z,2.75
2023-04-23T13:22:54.910Z,2.65
2023-04-23T13:25:26.352Z,2.47
2023-04-23T13:27:56.933Z,1.83
2023-04-23T13:30:27.509Z,1.70
2023-04-23T13:33:01.522Z,1.67
2023-04-23T13:35:33.661Z,2.20
2023-04-23T13:38:06.091Z,2.33
2023-04-23T13:40:36.913Z,2.67
2023-04-23T13:43:09.726Z,2.60
2023-04-23T13:45:40.496Z,2.63
2023-04-23T13:48:13.399Z,2.83
2023-04-23T13:50:45.589Z,2.40
2023-04-23T13:53:20.270Z,2.00
2023-04-23T13:55:52.923Z,2.65
2023-04-23T13:58:24.094Z,2.40
2023-04-23T14:01:18.120Z,2.72
2023-04-23T14:12:31.729Z,1.52
2023-04-23T14:15:02.521Z,1.90
2023-04-23T14:17:33.115Z,1.60
2023-04-23T14:20:03.939Z,1.60
2023-04-23T14:22:34.541Z,2.25
2023-04-23T14:25:07.054Z,1.73
2023-04-23T14:27:44.314Z,1.58
2023-04-23T14:30:22.088Z,1.55
2023-04-23T14:32:52.813Z,1.77
2023-04-23T14:35:35.689Z,2.10
2023-04-23T14:38:13.261Z,2.00
2023-04-23T14:40:44.203Z,1.90
2023-04-23T14:43:22.957Z,1.50
2023-04-23T14:45:53.506Z,1.77
2023-04-23T14:48:24.926Z,1.63
2023-04-23T14:50:55.515Z,1.70
2023-04-23T14:53:29.189Z,1.85
2023-04-23T14:55:59.700Z,1.85
2023-04-23T14:58:34.792Z,2.00
2023-04-23T15:01:07.003Z,1.80
2023-04-23T15:03:42.921Z,2.47
2023-04-23T15:06:17.569Z,2.03
2023-04-23T15:08:48.152Z,1.88
2023-04-23T15:11:18.839Z,1.80
2023-04-23T15:13:59.772Z,1.50
2023-04-23T15:16:47.677Z,2.00
2023-04-23T15:19:20.913Z,1.80
2023-04-23T15:21:51.797Z,1.80
2023-04-23T15:24:22.783Z,2.00
2023-04-23T15:26:54.602Z,1.63
2023-04-23T15:29:26.902Z,1.85
2023-04-23T15:31:59.118Z,1.65
2023-04-23T15:34:32.024Z,1.90
2023-04-23T15:37:04.806Z,1.95
2023-04-23T15:39:38.895Z,2.00
2023-04-23T15:42:12.447Z,1.75
2023-04-23T15:44:51.695Z,2.05
2023-04-23T15:47:23.720Z,1.90
2023-04-23T15:49:55.282Z,1.90
2023-04-23T15:52:28.407Z,1.60
2023-04-23T15:55:00.660Z,2.38
2023-04-23T15:57:32.206Z,2.17
2023-04-23T16:00:06.406Z,1.50
2023-04-23T16:02:38.980Z,1.65
2023-04-23T16:05:11.486Z,1.70
2023-04-23T16:07:43.622Z,1.83
2023-04-23T16:10:15.118Z,1.65
2023-04-23T16:12:46.909Z,2.22
2023-04-23T16:15:20.133Z,1.92
2023-04-23T16:17:53.812Z,2.13
2023-04-23T16:20:25.686Z,1.85
2023-04-23T16:22:57.607Z,1.60
2023-04-23T16:25:29.434Z,1.90
2023-04-23T16:28:01.170Z,1.60
2023-04-23T16:30:34.508Z,1.77
2023-04-23T16:33:06.140Z,1.70
2023-04-23T16:35:37.711Z,1.58
2023-04-23T16:38:12.142Z,1.70
2023-04-23T16:40:43.745Z,1.70
2023-04-23T16:43:15.034Z,1.92
2023-04-23T16:45:48.273Z,1.80
2023-04-23T16:48:21.040Z,1.80
2023-04-23T16:50:52.598Z,1.80
2023-04-23T16:53:24.118Z,1.95
2023-04-23T16:55:55.791Z,2.00
2023-04-23T16:58:27.272Z,1.52
2023-04-23T17:01:00.702Z,1.67
2023-04-23T17:03:32.379Z,1.83
2023-04-23T17:06:13.705Z,1.75
2023-04-23T17:08:45.648Z,1.92
2023-04-23T17:11:16.947Z,1.75
2023-04-23T17:13:48.985Z,2.08
2023-04-23T17:16:22.208Z,1.83
2023-04-23T17:18:53.718Z,1.60
2023-04-23T17:21:25.994Z,1.70
2023-04-23T17:23:57.882Z,1.65
2023-04-23T17:26:29.563Z,1.58
2023-04-23T17:29:01.375Z,1.70
2023-04-23T17:31:35.972Z,1.83
2023-04-23T17:34:09.176Z,1.85
2023-04-23T17:36:40.883Z,1.90
2023-04-23T17:39:12.446Z,2.00
2023-04-23T17:41:43.986Z,1.90
2023-04-23T17:44:15.524Z,1.80
2023-04-23T17:46:48.753Z,2.00
2023-04-23T17:49:20.075Z,1.70
2023-04-23T17:51:51.561Z,2.10
2023-04-23T17:54:22.921Z,1.70
2023-04-23T17:56:54.450Z,1.80
2023-04-23T17:59:25.896Z,2.00
2023-04-23T18:01:59.635Z,2.33
2023-04-23T18:04:31.740Z,1.70
2023-04-23T18:07:03.306Z,1.98
2023-04-23T18:09:35.042Z,2.00
2023-04-23T18:12:06.651Z,1.50
2023-04-23T18:14:38.640Z,1.77
2023-04-23T18:17:11.963Z,2.60
2023-04-23T18:19:44.033Z,1.80
2023-04-23T18:22:22.560Z,2.00
2023-04-23T18:24:55.605Z,2.38
2023-04-23T18:27:26.214Z,2.65
2023-04-23T18:29:58.549Z,1.85
2023-04-23T18:32:39.090Z,2.10
2023-04-23T18:35:14.792Z,2.10
2023-04-23T18:37:49.772Z,1.83
2023-04-23T18:40:21.043Z,1.83
2023-04-23T18:42:55.718Z,2.00
2023-04-23T18:45:31.042Z,1.70
2023-04-23T18:48:07.468Z,2.00
2023-04-23T18:50:45.804Z,2.20
2023-04-23T18:53:28.992Z,2.00
2023-04-23T18:55:59.481Z,2.22
2023-04-23T18:58:30.356Z,1.88
2023-04-23T19:01:03.764Z,1.98
2023-04-23T19:03:36.355Z,1.75
2023-04-23T19:06:09.603Z,1.80
2023-04-23T19:08:43.371Z,2.30
2023-04-23T19:11:14.717Z,1.67
2023-04-23T19:13:45.338Z,1.70
2023-04-23T19:16:17.570Z,1.80
2023-04-23T19:18:49.767Z,2.25
2023-04-23T19:21:20.216Z,1.80
2023-04-23T19:23:52.453Z,1.70
2023-04-23T19:26:27.359Z,1.92
2023-04-23T19:28:58.347Z,1.95
2023-04-23T19:31:31.607Z,1.92
2023-04-23T19:34:06.501Z,1.85
2023-04-23T19:36:36.908Z,2.20
2023-04-23T19:39:07.866Z,2.05
2023-04-23T19:41:40.267Z,2.20
2023-04-23T19:44:10.790Z,1.98
2023-04-23T19:46:41.288Z,1.90
2023-04-23T19:49:19.146Z,2.30
2023-04-23T19:51:54.157Z,2.20
2023-04-23T19:54:24.784Z,2.08
2023-04-23T19:56:55.383Z,2.70
2023-04-23T19:59:25.992Z,2.00
2023-04-23T20:01:56.910Z,2.55
2023-04-23T20:04:29.055Z,1.92
2023-04-23T20:06:59.542Z,2.20
2023-04-23T20:09:29.973Z,2.38
2023-04-23T20:12:00.428Z,1.95
2023-04-23T20:14:31.456Z,2.05
2023-04-23T20:17:02.093Z,2.40
2023-04-23T20:19:34.342Z,2.10
2023-04-23T20:22:04.820Z,2.15
2023-04-23T20:24:36.555Z,2.33
2023-04-23T20:27:07.753Z,2.38
2023-04-23T20:29:38.113Z,2.17
2023-04-23T20:32:08.643Z,1.95
2023-04-23T20:34:40.652Z,2.30
2023-04-23T20:37:12.191Z,2.50
2023-04-23T20:39:43.423Z,2.00
2023-04-23T20:42:15.666Z,2.15
2023-04-23T20:44:48.123Z,2.30
2023-04-23T20:47:18.728Z,2.28
2023-04-23T20:49:50.818Z,1.90
2023-04-23T20:52:21.378Z,2.20
2023-04-23T20:54:51.825Z,2.15
2023-04-23T20:57:22.390Z,2.28
2023-04-23T20:59:55.643Z,2.30
2023-04-23T21:02:26.212Z,2.60
2023-04-23T21:04:58.430Z,3.08
2023-04-23T21:07:29.134Z,2.38
2023-04-23T21:09:59.700Z,3.55
2023-04-23T21:12:30.392Z,3.45
2023-04-23T21:15:01.496Z,2.80
2023-04-23T21:17:32.002Z,2.60
2023-04-23T21:20:08.879Z,3.05
2023-04-23T21:22:39.672Z,3.13
2023-04-23T21:25:10.732Z,2.78
2023-04-23T21:27:41.196Z,2.30
2023-04-23T21:30:19.821Z,2.10
2023-04-23T21:32:52.923Z,1.80
2023-04-23T21:35:25.063Z,1.63
2023-04-23T21:37:55.525Z,1.30
2023-04-23T21:40:26.056Z,4.38
2023-04-23T21:42:56.657Z,1.70
2023-04-23T21:45:27.245Z,2.97
2023-04-23T21:47:58.843Z,1.50
2023-04-23T21:50:32.294Z,1.90
2023-04-23T21:53:04.104Z,2.72
2023-04-23T21:55:34.757Z,1.77
2023-04-23T21:58:16.771Z,1.50
2023-04-23T22:00:48.920Z,1.42
2023-04-23T22:03:28.246Z,1.10
2023-04-23T22:06:07.340Z,2.17
2023-04-23T22:08:39.381Z,3.38
2023-04-23T22:11:10.490Z,1.50
2023-04-23T22:13:41.024Z,1.42
2023-04-23T22:16:20.694Z,1.70
2023-04-23T22:18:55.360Z,1.63
2023-04-23T22:21:27.441Z,1.80
2023-04-23T22:23:57.945Z,1.65
2023-04-23T22:26:28.526Z,1.98
2023-04-23T22:28:58.959Z,1.77
2023-04-23T22:31:29.565Z,1.90
2023-04-23T22:34:00.053Z,2.38
2023-04-23T22:36:32.603Z,2.28
2023-04-23T22:39:03.047Z,2.38
2023-04-23T22:41:33.992Z,2.72
2023-04-23T22:44:04.718Z,1.73
2023-04-23T22:46:35.416Z,2.20
2023-04-23T22:49:08.838Z,2.13
2023-04-23T22:51:41.089Z,2.20
2023-04-23T22:54:11.547Z,2.30
2023-04-23T22:56:42.003Z,2.20
2023-04-23T22:59:13.797Z,3.03
2023-04-23T23:01:44.612Z,2.47
2023-04-23T23:04:15.245Z,2.80
2023-04-23T23:06:47.389Z,2.90
2023-04-23T23:09:18.736Z,2.85
2023-04-23T23:11:49.251Z,3.17
2023-04-23T23:14:19.829Z,3.55
2023-04-23T23:16:50.456Z,3.58
2023-04-23T23:19:20.914Z,3.55
2023-04-23T23:21:53.289Z,2.90
2023-04-23T23:24:24.377Z,2.90
2023-04-23T23:26:55.012Z,2.70
2023-04-23T23:29:25.534Z,2.58
2023-04-23T23:31:56.011Z,2.38
2023-04-23T23:34:26.489Z,2.28
2023-04-23T23:36:58.688Z,2.13
2023-04-23T23:39:29.707Z,2.58
2023-04-23T23:42:00.142Z,2.20
2023-04-23T23:44:30.640Z,2.70
2023-04-23T23:47:01.368Z,2.67
2023-04-23T23:49:32.133Z,2.42
2023-04-23T23:52:04.600Z,2.53
2023-04-23T23:54:35.156Z,2.60
2023-04-23T23:57:06.013Z,3.10
2023-04-23T23:59:36.451Z,2.40
